Time;durP1;ratioP1;P1;durP2;ratioP2;P2;SDS_P1;SDS_P2;PMS_P1;PMS_P2;Temp;Humidity;BMP_temperature;BMP_pressure;BME280_temperature;BME280_humidity;BME280_pressure;Samples;Min_cycle;Max_cycle;Signal;HPM_P1;HPM_P2
2022/12/04 00:01:53;;;;;;;53.80;25.17;;;;;;;0.93;86.77;101661.59;3336583;83;21447;-74
2022/12/04 00:06:44;;;;;;;62.08;28.95;;;;;;;0.92;86.70;101670.08;3349697;83;21686;-74
2022/12/04 00:11:35;;;;;;;50.28;26.10;;;;;;;0.89;86.77;101660.89;3348979;83;21057;-74
2022/12/04 00:16:30;;;;;;;38.73;18.65;;;;;;;0.89;86.81;101660.48;3375111;83;21258;-74
2022/12/04 00:21:24;;;;;;;51.23;25.25;;;;;;;0.89;86.92;101652.81;3348798;83;20962;-74
2022/12/04 00:26:21;;;;;;;47.03;23.55;;;;;;;0.89;86.88;101654.48;3352952;83;21155;-74
2022/12/04 00:31:16;;;;;;;54.27;24.83;;;;;;;0.89;86.89;101672.41;3329857;83;21097;-74
2022/12/04 00:36:12;;;;;;;50.45;25.80;;;;;;;0.88;86.93;101658.73;3295441;84;20970;-74
2022/12/04 00:41:03;;;;;;;44.83;22.77;;;;;;;0.90;86.89;101653.72;3344072;83;21524;-74
2022/12/04 00:45:54;;;;;;;45.35;23.83;;;;;;;0.88;86.90;101639.92;3371731;83;20963;-74
2022/12/04 00:50:45;;;;;;;54.08;25.27;;;;;;;0.90;86.98;101653.72;3322409;83;22587;-74
2022/12/04 00:55:38;;;;;;;52.30;24.00;;;;;;;0.91;86.93;101649.99;3377095;82;20942;-74
2022/12/04 01:00:30;;;;;;;46.45;22.45;;;;;;;0.92;86.85;101658.56;3377449;82;21065;-74
2022/12/04 01:05:21;;;;;;;49.67;24.10;;;;;;;0.91;86.85;101655.48;3374139;82;21029;-74
2022/12/04 01:10:13;;;;;;;40.63;22.60;;;;;;;0.92;86.90;101654.72;3410410;82;21018;-74
2022/12/04 01:15:05;;;;;;;48.25;23.98;;;;;;;0.92;86.90;101654.72;3375145;82;22712;-74
2022/12/04 01:19:57;;;;;;;43.45;20.95;;;;;;;0.92;86.91;101654.72;3360712;82;21536;-74
2022/12/04 01:24:48;;;;;;;43.83;22.58;;;;;;;0.93;86.91;101662.88;3378340;82;21046;-74
2022/12/04 01:29:39;;;;;;;40.70;21.42;;;;;;;0.91;86.91;101668.28;3365941;82;20946;-74
2022/12/04 01:34:30;;;;;;;48.08;24.12;;;;;;;0.93;86.99;101665.44;3372753;82;21208;-74
2022/12/04 01:39:21;;;;;;;43.90;23.35;;;;;;;0.93;86.95;101659.03;3360879;82;20942;-74
2022/12/04 01:44:22;;;;;;;43.63;22.30;;;;;;;0.92;86.93;101655.99;3370613;82;20962;-74
2022/12/04 01:49:31;;;;;;;42.05;23.12;;;;;;;0.93;87.05;101658.67;3375513;82;20994;-74
2022/12/04 01:54:27;;;;;;;42.33;22.40;;;;;;;0.91;86.92;101657.67;3372214;82;21029;-75
2022/12/04 01:59:23;;;;;;;43.73;20.97;;;;;;;0.89;86.99;101637.84;3361266;83;20994;-74
2022/12/04 02:04:14;;;;;;;42.88;19.65;;;;;;;0.88;86.95;101636.09;3397082;83;21610;-74
2022/12/04 02:09:05;;;;;;;35.33;19.10;;;;;;;0.85;86.93;101635.45;3351812;83;21006;-75
2022/12/04 02:14:39;;;;;;;37.93;19.12;;;;;;;0.84;87.06;101632.78;3300040;84;20991;-74
2022/12/04 02:19:53;;;;;;;33.98;19.42;;;;;;;0.82;87.05;101624.99;3413122;82;21599;-74
2022/12/04 02:25:09;;;;;;;37.35;19.75;;;;;;;0.82;87.07;101623.70;3410247;82;20961;-75
2022/12/04 02:30:05;;;;;;;39.35;22.00;;;;;;;0.86;87.09;101628.66;3317640;84;21101;-74
2022/12/04 02:35:01;;;;;;;39.05;18.48;;;;;;;0.86;87.03;101635.97;3344042;84;21026;-74
2022/12/04 02:40:13;;;;;;;37.75;20.12;;;;;;;0.87;87.12;101641.97;3317149;84;21014;-74
2022/12/04 02:45:11;;;;;;;42.80;22.10;;;;;;;0.89;87.20;101646.80;3304326;84;20963;-74
2022/12/04 02:50:08;;;;;;;45.70;23.20;;;;;;;0.90;87.10;101643.48;3319289;84;21030;-74
2022/12/04 02:55:07;;;;;;;38.23;20.70;;;;;;;0.89;87.11;101637.84;3300223;84;24966;-74
2022/12/04 03:00:00;;;;;;;45.52;20.25;;;;;;;0.89;87.07;101640.41;3178053;88;21075;-74
2022/12/04 03:04:54;;;;;;;42.15;22.22;;;;;;;0.88;87.16;101637.36;3229715;84;21400;-74
2022/12/04 03:09:51;;;;;;;43.25;21.30;;;;;;;0.89;87.15;101639.12;3326057;84;21487;-74
2022/12/04 03:14:51;;;;;;;49.17;24.80;;;;;;;0.87;87.08;101628.77;3266461;84;20955;-74
2022/12/04 03:19:47;;;;;;;40.20;22.20;;;;;;;0.86;87.12;101633.41;3288324;84;22076;-74
2022/12/04 03:24:47;;;;;;;43.70;21.27;;;;;;;0.88;87.16;101624.56;3325634;84;21039;-74
2022/12/04 03:29:43;;;;;;;36.08;18.40;;;;;;;0.88;87.15;101622.88;3301629;84;21536;-74
2022/12/04 03:34:51;;;;;;;39.38;19.62;;;;;;;0.87;87.06;101627.89;3329171;84;21509;-74
2022/12/04 03:40:00;;;;;;;39.90;20.10;;;;;;;0.84;87.07;101619.98;3294674;84;20996;-74
2022/12/04 03:45:02;;;;;;;36.38;20.10;;;;;;;0.87;87.12;101620.21;3304660;85;21159;-73
2022/12/04 03:50:02;;;;;;;41.05;21.80;;;;;;;0.88;87.12;101615.60;3292628;85;20982;-74
2022/12/04 03:55:07;;;;;;;40.28;22.48;;;;;;;0.87;87.05;101615.09;3260429;83;21834;-74
2022/12/04 04:00:15;;;;;;;43.55;21.40;;;;;;;0.84;87.04;101608.46;3385289;83;20975;-74
2022/12/04 04:05:10;;;;;;;44.83;22.82;;;;;;;0.83;87.11;101602.86;3323586;83;21094;-74
2022/12/04 04:10:07;;;;;;;44.60;22.02;;;;;;;0.82;87.14;101601.06;3332031;83;21018;-74
2022/12/04 04:26:25;;;;;;;39.60;21.07;;;;;;;0.83;87.19;101607.98;3370751;83;20994;-75
2022/12/04 04:31:24;;;;;;;47.38;22.80;;;;;;;0.83;87.21;101616.95;3208045;87;21330;-74
2022/12/04 04:36:38;;;;;;;47.88;22.60;;;;;;;0.82;87.15;101610.03;3256506;87;21003;-74
2022/12/04 04:41:41;;;;;;;38.67;20.50;;;;;;;0.79;87.01;101605.59;3222176;86;21609;-74
2022/12/04 04:46:36;;;;;;;42.78;22.60;;;;;;;0.78;87.04;101597.80;3236901;86;21022;-73
2022/12/04 04:51:30;;;;;;;41.53;21.93;;;;;;;0.75;87.04;101590.41;3261641;86;21620;-74
2022/12/04 04:56:22;;;;;;;36.55;18.25;;;;;;;0.74;87.05;101605.26;3248784;87;21031;-74
2022/12/04 05:01:17;;;;;;;34.20;18.40;;;;;;;0.75;86.93;101605.77;3182312;88;20952;-74
2022/12/04 05:06:09;;;;;;;27.25;14.53;;;;;;;0.76;87.00;101601.53;3225138;88;21022;-73
2022/12/04 05:11:01;;;;;;;32.95;17.25;;;;;;;0.75;86.85;101610.89;3218603;86;21624;-74
2022/12/04 05:16:06;;;;;;;34.33;18.77;;;;;;;0.76;86.82;101616.89;3205421;88;21082;-74
2022/12/04 05:20:57;;;;;;;31.75;17.42;;;;;;;0.78;86.83;101613.16;3204511;87;21015;-74
2022/12/04 05:25:48;;;;;;;42.00;20.27;;;;;;;0.79;86.79;101618.77;3188692;83;21815;-74
2022/12/04 05:30:39;;;;;;;39.27;19.92;;;;;;;0.78;86.75;101614.45;3343739;83;21010;-74
2022/12/04 05:35:31;;;;;;;36.98;19.20;;;;;;;0.80;86.76;101620.55;3316379;84;20998;-74
2022/12/04 05:40:22;;;;;;;43.20;22.10;;;;;;;0.78;86.67;101622.12;3385149;83;20913;-74
2022/12/04 05:45:13;;;;;;;43.73;21.30;;;;;;;0.74;86.63;101610.38;3406668;82;20949;-73
2022/12/04 05:50:06;;;;;;;36.05;19.35;;;;;;;0.71;86.67;101616.55;3405052;82;21008;-73
2022/12/04 05:54:57;;;;;;;37.35;20.05;;;;;;;0.72;86.79;101622.19;3404192;82;21476;-75
2022/12/04 05:59:50;;;;;;;37.65;19.48;;;;;;;0.73;86.83;101625.26;3337416;82;21064;-74
2022/12/04 06:04:41;;;;;;;43.58;21.17;;;;;;;0.75;86.81;101633.94;3372517;82;22091;-74
2022/12/04 06:09:32;;;;;;;44.18;21.30;;;;;;;0.74;86.74;101628.30;3391922;82;21532;-74
2022/12/04 06:14:23;;;;;;;40.55;20.08;;;;;;;0.72;86.73;101623.46;3338334;82;21800;-74
2022/12/04 06:19:18;;;;;;;26.85;14.85;;;;;;;0.71;86.69;101617.83;3400113;82;21236;-74
2022/12/04 06:24:14;;;;;;;36.85;18.95;;;;;;;0.70;86.83;101628.87;3364498;82;21038;-74
2022/12/04 06:29:05;;;;;;;38.70;19.77;;;;;;;0.65;86.67;101636.61;3350384;82;20978;-74
2022/12/04 06:33:57;;;;;;;41.58;19.92;;;;;;;0.68;86.73;101655.12;3352304;82;20971;-74
2022/12/04 06:38:50;;;;;;;40.85;21.45;;;;;;;0.68;86.66;101661.52;3372472;82;21033;-74
2022/12/04 06:43:42;;;;;;;31.25;16.20;;;;;;;0.68;86.63;101676.51;3351216;82;21006;-74
2022/12/04 06:48:33;;;;;;;34.67;19.73;;;;;;;0.71;86.61;101683.11;3327913;82;20939;-74
2022/12/04 06:53:26;;;;;;;38.48;19.92;;;;;;;0.70;86.57;101674.95;3420480;81;20979;-74
2022/12/04 06:58:17;;;;;;;34.58;18.42;;;;;;;0.71;86.45;101667.75;3328681;83;20971;-74
2022/12/04 07:03:08;;;;;;;36.80;19.05;;;;;;;0.72;86.47;101672.10;3318478;83;21850;-74
2022/12/04 07:07:59;;;;;;;32.78;19.60;;;;;;;0.75;86.57;101669.77;3348455;83;20990;-74
2022/12/04 07:12:50;;;;;;;42.05;21.33;;;;;;;0.78;86.40;101668.20;3318198;83;20979;-74
2022/12/04 07:17:41;;;;;;;39.63;21.70;;;;;;;0.79;86.33;101673.80;3298292;83;21739;-74
2022/12/04 07:22:32;;;;;;;37.33;20.43;;;;;;;0.80;86.27;101671.77;3308416;83;21002;-74
2022/12/04 07:27:23;;;;;;;32.70;19.85;;;;;;;0.81;86.17;101661.63;3352016;83;20959;-73
2022/12/04 07:32:14;;;;;;;36.35;20.30;;;;;;;0.81;86.12;101660.36;3328334;83;20963;-73
2022/12/04 07:37:05;;;;;;;30.25;17.42;;;;;;;0.82;86.17;101668.91;3322196;83;21051;-73
2022/12/04 07:41:56;;;;;;;35.88;18.77;;;;;;;0.84;86.16;101678.50;3319555;83;20999;-72
2022/12/04 07:46:48;;;;;;;23.07;15.10;;;;;;;0.87;86.16;101649.25;3313835;83;21027;-74
2022/12/04 07:51:39;;;;;;;31.37;19.75;;;;;;;0.90;86.09;101666.52;3321712;83;21742;-73
2022/12/04 07:56:30;;;;;;;35.17;19.52;;;;;;;0.90;85.90;101676.77;3406123;82;20985;-73
2022/12/04 08:01:23;;;;;;;31.80;18.73;;;;;;;0.90;85.90;101671.64;3359603;82;21534;-73
2022/12/04 08:06:17;;;;;;;32.42;19.45;;;;;;;0.91;85.95;101670.84;3364886;82;20938;-74
2022/12/04 08:11:13;;;;;;;31.85;18.82;;;;;;;0.90;85.77;101670.37;3381752;82;21023;-74
2022/12/04 08:16:08;;;;;;;32.60;19.10;;;;;;;0.87;85.79;101664.62;3395114;82;21962;-73
2022/12/04 08:21:06;;;;;;;28.35;18.27;;;;;;;0.91;85.95;101665.73;3379470;82;21479;-73
2022/12/04 08:26:00;;;;;;;29.27;16.45;;;;;;;0.93;85.82;101668.00;3371857;82;20999;-74
2022/12/04 08:30:51;;;;;;;28.98;17.80;;;;;;;0.94;85.75;101673.63;3362042;82;20969;-73
2022/12/04 08:35:42;;;;;;;29.70;18.27;;;;;;;0.97;85.81;101676.42;3359177;82;20929;-73
2022/12/04 08:40:33;;;;;;;28.60;18.00;;;;;;;1.01;85.75;101685.21;3366430;82;20982;-73
2022/12/04 08:45:25;;;;;;;28.50;17.85;;;;;;;1.06;85.63;101687.31;3356352;82;21486;-74
2022/12/04 08:50:16;;;;;;;30.43;17.87;;;;;;;1.10;85.70;101682.89;3376980;82;21035;-74
2022/12/04 08:55:09;;;;;;;27.75;17.65;;;;;;;1.17;85.64;101683.34;3371485;82;21475;-73
2022/12/04 09:00:00;;;;;;;27.02;15.98;;;;;;;1.20;85.51;101683.17;3331417;82;20966;-72
2022/12/04 09:04:51;;;;;;;25.82;16.23;;;;;;;1.21;85.36;101677.24;3324836;82;21534;-74
2022/12/04 09:09:43;;;;;;;27.73;17.15;;;;;;;1.23;85.24;101685.04;3383792;82;20928;-74
2022/12/04 09:14:38;;;;;;;25.12;16.75;;;;;;;1.23;85.29;101671.83;3331563;82;21037;-74
2022/12/04 09:20:21;;;;;;;;;;;;;;;;;;;;;
2022/12/04 09:25:13;;;;;;;33.00;19.25;;;;;;;1.26;85.13;101669.89;3265448;84;20976;-75
2022/12/04 09:30:11;;;;;;;28.98;17.98;;;;;;;1.30;85.21;101668.91;3248323;84;21840;-75
2022/12/04 09:35:17;;;;;;;24.87;16.07;;;;;;;1.33;85.09;101663.13;3206310;85;21726;-75
2022/12/04 09:40:32;;;;;;;24.55;15.60;;;;;;;1.38;85.11;101656.66;3216059;84;21015;-74
2022/12/04 09:45:26;;;;;;;23.70;15.85;;;;;;;1.38;84.92;101650.25;3276009;84;21058;-74
2022/12/04 09:50:40;;;;;;;25.17;15.23;;;;;;;1.44;85.05;101657.47;3253183;84;21022;-71
2022/12/04 09:56:01;;;;;;;21.65;14.35;;;;;;;1.45;84.87;101656.30;3276443;84;21326;-73
2022/12/04 10:00:53;;;;;;;26.37;16.60;;;;;;;1.50;84.71;101643.41;3229352;84;21561;-73
2022/12/04 10:06:05;;;;;;;24.12;15.58;;;;;;;1.50;84.67;101642.12;3233556;84;21464;-73
2022/12/04 10:11:07;;;;;;;24.30;16.05;;;;;;;1.55;84.57;101639.86;3291683;85;21639;-73
2022/12/04 10:16:16;;;;;;;21.82;14.87;;;;;;;1.65;84.76;101641.39;3297155;84;21026;-73
2022/12/04 10:21:56;;;;;;;26.75;15.38;;;;;;;1.79;84.78;101641.92;3348324;83;22551;-73
2022/12/04 10:26:49;;;;;;;24.85;15.88;;;;;;;1.84;84.48;101645.69;3341344;83;20994;-73
2022/12/04 10:31:44;;;;;;;28.30;16.27;;;;;;;1.83;84.12;101625.95;3338192;83;20982;-73
2022/12/04 10:36:35;;;;;;;22.07;15.85;;;;;;;1.81;84.27;101626.24;3392483;82;20986;-74
2022/12/04 10:41:46;;;;;;;25.52;17.62;;;;;;;1.82;84.26;101629.69;3373416;83;26524;-73
2022/12/04 10:46:37;;;;;;;25.43;17.27;;;;;;;1.82;84.18;101616.86;3391189;83;21828;-73
2022/12/04 10:51:38;;;;;;;22.00;15.70;;;;;;;1.79;84.09;101606.02;3331321;83;20887;-73
2022/12/04 10:56:29;;;;;;;29.52;18.25;;;;;;;1.76;84.19;101603.25;3390976;82;21018;-73
2022/12/04 11:01:21;;;;;;;24.15;16.48;;;;;;;1.73;84.22;101613.29;3352903;82;21755;-74
2022/12/04 11:06:13;;;;;;;21.05;15.05;;;;;;;1.75;84.29;101606.98;3376404;82;21615;-74
2022/12/04 11:11:10;;;;;;;26.25;17.23;;;;;;;1.73;84.18;101599.59;3360792;82;22330;-74
2022/12/04 11:16:02;;;;;;;24.70;15.43;;;;;;;1.70;84.31;101599.00;3360244;82;22231;-74
2022/12/04 11:21:07;;;;;;;27.48;17.70;;;;;;;1.70;84.25;101588.75;3336668;82;21612;-72
2022/12/04 11:25:59;;;;;;;26.15;17.10;;;;;;;1.66;84.28;101583.81;3352660;82;21445;-74
2022/12/04 11:31:21;;;;;;;27.25;16.95;;;;;;;1.69;84.28;101581.83;3393563;82;21014;-75
2022/12/04 11:36:24;;;;;;;24.70;15.90;;;;;;;1.66;84.29;101568.80;3415677;82;21523;-73
2022/12/04 11:41:29;;;;;;;25.15;18.57;;;;;;;1.66;84.38;101570.99;3412558;82;20967;-74
2022/12/04 11:46:25;;;;;;;25.17;18.05;;;;;;;1.68;84.49;101580.04;3388633;82;20978;-73
2022/12/04 11:51:30;;;;;;;24.27;17.60;;;;;;;1.69;84.46;101576.70;3435879;81;20936;-74
2022/12/04 11:56:39;;;;;;;23.67;17.10;;;;;;;1.67;84.49;101572.75;3366382;82;21565;-73
2022/12/04 12:01:59;;;;;;;22.93;16.17;;;;;;;1.68;84.57;101573.63;3410654;82;21155;-73
2022/12/04 12:07:19;;;;;;;23.45;16.37;;;;;;;1.70;84.76;101578.50;3422237;81;20974;-73
2022/12/04 12:18:09;;;;;;;21.75;15.32;;;;;;;1.68;84.64;101581.32;3395794;82;21013;-72
2022/12/04 12:23:18;;;;;;;27.32;17.02;;;;;;;1.68;84.59;101572.34;3383030;81;21812;-73
2022/12/04 12:28:35;;;;;;;23.47;15.80;;;;;;;1.66;84.57;101571.36;3403587;82;21517;-73
2022/12/04 12:33:32;;;;;;;32.15;18.73;;;;;;;1.67;84.70;101564.18;3345341;83;22559;-72
2022/12/04 12:38:37;;;;;;;25.57;16.40;;;;;;;1.68;84.67;101546.71;3324123;83;21138;-73
2022/12/04 12:43:36;;;;;;;31.70;18.90;;;;;;;1.66;84.57;101552.13;3321428;83;20943;-73
2022/12/04 12:48:50;;;;;;;27.87;17.50;;;;;;;1.66;84.64;101559.45;3320211;84;20950;-73
2022/12/04 12:53:46;;;;;;;30.00;19.52;;;;;;;1.68;84.82;101551.84;3114392;89;21584;-73
2022/12/04 12:58:52;;;;;;;31.63;18.17;;;;;;;1.72;84.78;101546.16;3134573;89;21017;-72
2022/12/04 13:03:57;;;;;;;29.32;17.67;;;;;;;1.74;84.72;101545.85;3132645;90;20954;-73
2022/12/04 13:09:00;;;;;;;24.52;16.32;;;;;;;1.74;84.71;101560.36;3135288;89;21121;-73
2022/12/04 13:13:58;;;;;;;21.85;14.38;;;;;;;1.72;84.60;101552.56;3170827;88;20983;-73
2022/12/04 13:19:04;;;;;;;25.15;15.03;;;;;;;1.70;84.55;101557.98;3074825;90;21155;-72
2022/12/04 13:24:27;;;;;;;28.02;17.77;;;;;;;1.66;84.59;101558.55;3153931;88;21620;-73
2022/12/04 13:29:42;;;;;;;27.80;16.32;;;;;;;1.65;84.62;101559.35;3238942;83;21217;-73
2022/12/04 13:35:07;;;;;;;24.52;16.48;;;;;;;1.64;84.71;101556.28;3389122;83;21457;-73
2022/12/04 13:40:30;;;;;;;25.52;15.72;;;;;;;1.62;84.64;101550.17;3367863;83;20967;-73
2022/12/04 13:45:27;;;;;;;26.68;16.35;;;;;;;1.57;84.53;101552.81;3182430;87;21530;-73
2022/12/04 13:50:27;;;;;;;23.32;14.38;;;;;;;1.53;84.56;101559.01;3179646;87;20975;-73
2022/12/04 13:55:29;;;;;;;21.85;14.15;;;;;;;1.48;84.59;101574.47;3178771;88;21034;-73
2022/12/04 14:00:34;;;;;;;22.75;15.68;;;;;;;1.47;84.67;101577.83;3182762;88;20993;-73
2022/12/04 14:05:33;;;;;;;20.27;14.95;;;;;;;1.46;84.66;101568.35;3196697;86;20988;-73
2022/12/04 14:10:35;;;;;;;23.50;13.35;;;;;;;1.48;84.63;101573.19;3155287;86;21239;-73
2022/12/04 14:15:35;;;;;;;26.15;16.40;;;;;;;1.45;84.53;101571.72;3205987;86;21729;-73
2022/12/04 14:20:30;;;;;;;20.27;15.18;;;;;;;1.42;84.61;101583.03;3240170;83;21026;-73
2022/12/04 14:25:33;;;;;;;24.32;15.13;;;;;;;1.40;84.47;101587.17;3339279;83;21002;-72
2022/12/04 14:30:35;;;;;;;19.73;13.58;;;;;;;1.38;84.49;101593.88;3391974;83;21021;-72
2022/12/04 14:35:28;;;;;;;21.10;15.08;;;;;;;1.38;84.59;101599.00;3334353;83;21814;-73
2022/12/04 14:40:24;;;;;;;22.58;14.10;;;;;;;1.38;84.53;101599.00;3346935;83;22180;-73
2022/12/04 14:45:29;;;;;;;20.17;14.03;;;;;;;1.40;84.53;101599.98;3397116;82;21892;-73
2022/12/04 14:50:50;;;;;;;21.50;14.30;;;;;;;1.40;84.38;101599.98;3362676;83;20982;-73
2022/12/04 14:56:10;;;;;;;21.57;14.87;;;;;;;1.36;84.40;101598.01;3346584;83;21523;-72
2022/12/04 15:01:26;;;;;;;19.70;14.15;;;;;;;1.31;84.33;101612.17;3399177;82;21158;-73
2022/12/04 15:06:30;;;;;;;20.45;14.63;;;;;;;1.30;84.40;101610.38;3354445;82;21009;-73
2022/12/04 15:16:31;;;;;;;18.95;13.45;;;;;;;1.30;84.56;101607.82;3355005;83;20967;-73
2022/12/04 15:21:32;;;;;;;23.83;15.55;;;;;;;1.30;84.46;101603.98;3348546;82;20966;-72
2022/12/04 15:26:25;;;;;;;21.12;14.43;;;;;;;1.29;84.42;101611.19;3361579;82;21252;-74
2022/12/04 15:31:24;;;;;;;21.90;15.10;;;;;;;1.31;84.46;101609.61;3388347;82;21017;-74
2022/12/04 15:36:36;;;;;;;22.77;15.60;;;;;;;1.30;84.31;101616.39;3349329;82;21002;-74
2022/12/04 15:41:32;;;;;;;20.92;12.80;;;;;;;1.25;84.28;101620.34;3376793;82;21038;-74
2022/12/04 15:46:33;;;;;;;15.80;12.58;;;;;;;1.24;84.35;101620.23;3402699;82;21464;-71
2022/12/04 15:51:25;;;;;;;20.37;14.98;;;;;;;1.22;84.26;101614.98;3357638;82;20965;-74
2022/12/04 15:56:19;;;;;;;19.12;10.90;;;;;;;1.23;84.30;101606.91;3366093;82;21327;-74
2022/12/04 16:01:14;;;;;;;17.40;13.18;;;;;;;1.24;84.27;101597.16;3369148;82;20974;-74
2022/12/04 16:06:21;;;;;;;20.08;14.38;;;;;;;1.20;84.10;101605.03;3376391;82;21057;-74
2022/12/04 16:11:24;;;;;;;17.50;13.03;;;;;;;1.19;84.08;101603.64;3406994;82;20982;-74
2022/12/04 16:16:20;;;;;;;21.87;14.15;;;;;;;1.17;84.17;101597.53;3411108;82;22363;-74
2022/12/04 16:21:16;;;;;;;21.20;11.97;;;;;;;1.16;84.18;101602.14;3360436;82;21515;-71
2022/12/04 16:26:14;;;;;;;15.78;12.37;;;;;;;1.16;84.18;101607.27;3396630;82;22072;-74
2022/12/04 16:31:05;;;;;;;21.80;13.95;;;;;;;1.13;84.23;101587.06;3371069;82;20986;-74
2022/12/04 16:35:56;;;;;;;20.50;14.30;;;;;;;1.14;84.25;101591.42;3328483;82;20998;-72
2022/12/04 16:40:47;;;;;;;17.90;11.40;;;;;;;1.15;84.22;101584.61;3337582;82;21045;-71
2022/12/04 16:45:44;;;;;;;18.12;13.53;;;;;;;1.14;84.21;101587.58;3371226;82;21027;-72
2022/12/04 16:50:36;;;;;;;20.17;13.73;;;;;;;1.13;84.11;101592.19;3355907;82;21007;-74
2022/12/04 16:55:35;;;;;;;20.37;13.40;;;;;;;1.12;84.09;101583.99;3394997;82;21445;-74
2022/12/04 17:00:27;;;;;;;20.23;13.78;;;;;;;1.12;84.08;101579.27;3327314;83;20963;-74
2022/12/04 17:05:22;;;;;;;25.25;14.95;;;;;;;1.12;84.18;101579.27;3358844;83;21108;-71
2022/12/04 17:10:14;;;;;;;18.50;13.15;;;;;;;1.13;84.15;101581.06;3336984;83;21507;-71
2022/12/04 17:15:06;;;;;;;20.10;14.33;;;;;;;1.15;84.12;101587.17;3354233;83;21010;-71
2022/12/04 17:19:57;;;;;;;18.17;13.75;;;;;;;1.13;84.09;101587.06;3376129;83;21536;-71
2022/12/04 17:24:48;;;;;;;21.25;14.53;;;;;;;1.13;84.12;101585.78;3383888;83;20978;-71
2022/12/04 17:29:39;;;;;;;18.70;13.22;;;;;;;1.13;83.94;101589.63;3396444;83;21094;-71
2022/12/04 17:34:30;;;;;;;15.78;12.45;;;;;;;1.11;84.04;101593.76;3374464;83;20970;-71
2022/12/04 17:39:22;;;;;;;15.15;11.65;;;;;;;1.07;83.92;101586.66;3377840;83;20943;-71
2022/12/04 17:44:13;;;;;;;15.88;11.43;;;;;;;1.06;83.88;101581.42;3362431;83;21911;-71
2022/12/04 17:49:04;;;;;;;16.87;12.45;;;;;;;1.07;84.06;101570.00;3380470;83;20998;-71
2022/12/04 17:53:55;;;;;;;16.37;12.82;;;;;;;1.07;83.90;101570.38;3395902;83;27015;-71
2022/12/04 17:58:47;;;;;;;14.65;10.78;;;;;;;1.04;83.91;101565.95;3318958;83;21061;-71
2022/12/04 18:03:42;;;;;;;16.23;11.85;;;;;;;1.02;83.91;101564.95;3327273;84;20982;-74
2022/12/04 18:08:33;;;;;;;13.38;9.95;;;;;;;1.02;84.00;101553.43;3300861;85;20976;-74
2022/12/04 18:13:24;;;;;;;15.48;11.12;;;;;;;1.02;83.98;101554.71;3271323;85;26684;-74
2022/12/04 18:18:15;;;;;;;15.48;11.63;;;;;;;1.01;83.93;101547.80;3293075;84;20980;-72
2022/12/04 18:23:06;;;;;;;13.83;10.63;;;;;;;1.02;83.98;101547.03;3352471;84;21705;-72
2022/12/04 18:27:58;;;;;;;14.83;11.28;;;;;;;1.00;83.95;101547.28;3318652;84;21054;-71
2022/12/04 18:32:49;;;;;;;15.95;11.48;;;;;;;0.99;83.95;101545.53;3358667;83;21265;-71
2022/12/04 18:37:40;;;;;;;21.65;12.78;;;;;;;0.98;83.99;101539.89;3318880;83;22545;-71
2022/12/04 18:42:31;;;;;;;16.00;10.80;;;;;;;0.99;84.01;101553.21;3324998;84;21319;-71
2022/12/04 18:47:22;;;;;;;17.20;12.47;;;;;;;1.01;84.07;101554.60;3311646;84;20967;-70
2022/12/04 18:52:13;;;;;;;19.05;11.90;;;;;;;1.03;84.01;101559.03;3267024;84;21391;-73
2022/12/04 18:57:04;;;;;;;19.20;11.15;;;;;;;1.03;83.92;101557.75;3340143;84;20948;-73
2022/12/04 19:01:55;;;;;;;17.75;11.25;;;;;;;1.02;83.94;101567.52;3306159;84;21042;-73
2022/12/04 19:06:52;;;;;;;17.42;11.97;;;;;;;1.03;83.98;101575.67;3307731;84;21005;-73
2022/12/04 19:11:44;;;;;;;16.15;12.07;;;;;;;1.05;83.92;101581.79;3319466;84;20994;-73
2022/12/04 19:16:37;;;;;;;20.60;13.83;;;;;;;1.05;83.88;101579.23;3291655;84;35969;-73
2022/12/04 19:21:28;;;;;;;19.37;13.53;;;;;;;1.06;83.95;101582.30;3316519;84;20968;-73
2022/12/04 19:26:19;;;;;;;18.40;11.97;;;;;;;1.07;83.90;101579.34;3348286;84;20891;-73
2022/12/04 19:31:20;;;;;;;13.53;10.72;;;;;;;1.06;83.82;101577.17;3286740;84;21054;-72
2022/12/04 19:36:13;;;;;;;22.42;14.03;;;;;;;1.05;83.85;101580.51;3314760;84;20979;-73
2022/12/04 19:41:15;;;;;;;19.00;12.03;;;;;;;1.06;83.78;101574.62;3287287;84;20959;-74
2022/12/04 19:46:09;;;;;;;18.92;12.63;;;;;;;1.07;83.89;101562.32;3326214;84;21274;-73
2022/12/04 19:51:08;;;;;;;20.30;13.25;;;;;;;1.05;83.75;101556.17;3281613;84;21074;-73
2022/12/04 19:56:10;;;;;;;19.67;13.05;;;;;;;1.05;83.83;101554.89;3345553;84;22193;-74
2022/12/04 20:01:07;;;;;;;16.37;11.65;;;;;;;1.07;83.79;101553.36;3295687;84;21494;-73
2022/12/04 20:06:07;;;;;;;20.48;13.62;;;;;;;1.06;83.81;101547.72;3345385;84;20965;-73
2022/12/04 20:11:06;;;;;;;21.57;13.00;;;;;;;1.07;83.78;101550.80;3318578;84;20997;-74
2022/12/04 20:16:02;;;;;;;18.05;12.43;;;;;;;1.06;83.65;101552.84;3301702;84;20993;-73
2022/12/04 20:20:57;;;;;;;15.90;12.63;;;;;;;1.06;83.74;101565.66;3318854;84;21109;-73
2022/12/04 20:25:48;;;;;;;18.00;13.35;;;;;;;1.07;83.71;101573.84;3308632;84;20990;-73
2022/12/04 20:30:39;;;;;;;18.32;12.28;;;;;;;1.05;83.76;101584.34;3275572;84;21049;-74
2022/12/04 20:35:30;;;;;;;17.67;12.50;;;;;;;1.08;83.55;101587.53;3338015;84;21039;-74
2022/12/04 20:40:21;;;;;;;19.85;13.10;;;;;;;1.08;83.69;101596.50;3315324;84;21009;-73
2022/12/04 20:45:12;;;;;;;18.00;12.30;;;;;;;1.08;83.73;101584.57;3280626;84;22160;-74
2022/12/04 20:50:06;;;;;;;16.60;12.28;;;;;;;1.09;83.63;101607.22;3318151;84;21030;-73
2022/12/04 20:54:56;;;;;;;19.40;12.53;;;;;;;1.07;83.57;101617.39;3295629;84;21304;-74
2022/12/04 20:59:47;;;;;;;14.68;11.85;;;;;;;1.10;83.58;101609.02;3359542;83;20939;-73
2022/12/04 21:04:39;;;;;;;16.65;11.80;;;;;;;1.10;83.67;101603.89;3367031;82;21266;-73
2022/12/04 21:09:30;;;;;;;18.50;12.95;;;;;;;1.09;83.52;101597.89;3355209;83;21145;-74
2022/12/04 21:19:35;;;;;;;13.65;11.85;;;;;;;1.09;83.54;101588.92;3375162;83;20963;-73
2022/12/04 21:24:27;;;;;;;17.42;11.48;;;;;;;1.10;83.38;101568.91;3356864;83;20970;-73
2022/12/04 21:29:18;;;;;;;14.33;11.03;;;;;;;1.06;83.28;101561.81;3386728;82;20951;-73
2022/12/04 21:34:13;;;;;;;14.18;11.18;;;;;;;1.05;83.44;101552.73;3362944;82;21007;-72
2022/12/04 21:39:04;;;;;;;14.63;11.03;;;;;;;1.08;83.38;101548.71;3361414;83;20989;-73
2022/12/04 21:43:55;;;;;;;17.48;12.98;;;;;;;1.10;83.42;101550.98;3362478;83;21077;-73
2022/12/04 21:48:47;;;;;;;19.20;10.90;;;;;;;1.10;83.41;101547.55;3368429;82;20988;-73
2022/12/04 21:53:38;;;;;;;15.23;11.65;;;;;;;1.09;83.29;101549.22;3339301;82;21601;-73
2022/12/04 21:58:29;;;;;;;13.88;10.18;;;;;;;1.08;83.31;101557.67;3345905;82;20971;-73
2022/12/04 22:03:20;;;;;;;16.32;12.18;;;;;;;1.08;83.25;101551.67;3371492;83;20966;-73
2022/12/04 22:08:13;;;;;;;13.40;10.88;;;;;;;1.05;83.25;101554.89;3330824;83;20997;-73
2022/12/04 22:13:04;;;;;;;16.15;12.03;;;;;;;1.07;83.30;101550.80;3359934;83;21006;-73
2022/12/04 22:17:55;;;;;;;13.72;11.35;;;;;;;1.08;83.13;101565.36;3409315;83;20986;-73
2022/12/04 22:22:46;;;;;;;13.93;10.43;;;;;;;1.05;83.15;101550.17;3428534;81;21727;-73
2022/12/04 22:27:37;;;;;;;13.72;11.35;;;;;;;1.03;83.03;101539.82;3400461;83;20911;-74
2022/12/04 22:32:28;;;;;;;13.53;11.40;;;;;;;1.01;83.05;101547.80;3421067;82;20963;-73
2022/12/04 22:37:19;;;;;;;15.65;12.35;;;;;;;0.99;83.06;101550.65;3356422;83;20962;-73
2022/12/04 22:42:10;;;;;;;19.05;13.15;;;;;;;0.98;83.12;101538.61;3347508;83;22283;-73
2022/12/04 22:47:01;;;;;;;13.78;11.18;;;;;;;0.97;83.17;101531.73;3337969;83;21066;-74
2022/12/04 22:51:52;;;;;;;14.58;11.57;;;;;;;0.97;83.07;101540.70;3347836;83;21003;-73
2022/12/04 22:56:43;;;;;;;14.38;12.20;;;;;;;0.95;83.06;101525.63;3374704;83;21042;-73
2022/12/04 23:01:36;;;;;;;16.77;11.93;;;;;;;0.96;83.14;101526.10;3378171;83;20930;-74
2022/12/04 23:06:30;;;;;;;17.05;12.25;;;;;;;0.98;83.12;101527.09;3340560;83;21681;-73
2022/12/04 23:11:26;;;;;;;17.57;13.53;;;;;;;0.98;83.12;101514.28;3312426;83;21258;-74
2022/12/04 23:16:18;;;;;;;15.60;11.38;;;;;;;0.99;83.16;101510.95;3393998;82;21031;-75